sensor_id;sensor_type;location;lat;lon;timestamp;P1;durP1;ratioP1;P2;durP2;ratioP2
73321;SDS011;61549;37.044;22.128;2022-09-27T00:00:30;2.20;;;2.00;;
73321;SDS011;61549;37.044;22.128;2022-09-27T00:02:57;2.65;;;2.00;;
73321;SDS011;61549;37.044;22.128;2022-09-27T00:05:23;3.08;;;2.25;;
73321;SDS011;61549;37.044;22.128;2022-09-27T00:07:48;4.15;;;2.50;;
73321;SDS011;61549;37.044;22.128;2022-09-27T00:10:14;2.25;;;2.05;;
73321;SDS011;61549;37.044;22.128;2022-09-27T00:12:40;3.05;;;2.08;;
73321;SDS011;61549;37.044;22.128;2022-09-27T00:15:07;2.42;;;2.22;;
73321;SDS011;61549;37.044;22.128;2022-09-27T00:17:34;2.30;;;2.10;;
73321;SDS011;61549;37.044;22.128;2022-09-27T00:20:02;2.30;;;2.10;;
73321;SDS011;61549;37.044;22.128;2022-09-27T00:22:29;2.17;;;2.08;;
73321;SDS011;61549;37.044;22.128;2022-09-27T00:24:55;2.47;;;2.00;;
73321;SDS011;61549;37.044;22.128;2022-09-27T00:27:21;2.30;;;2.10;;
73321;SDS011;61549;37.044;22.128;2022-09-27T00:29:47;2.30;;;2.10;;
73321;SDS011;61549;37.044;22.128;2022-09-27T00:32:13;2.30;;;1.90;;
73321;SDS011;61549;37.044;22.128;2022-09-27T00:34:40;2.58;;;2.10;;
73321;SDS011;61549;37.044;22.128;2022-09-27T00:37:07;2.55;;;2.35;;
73321;SDS011;61549;37.044;22.128;2022-09-27T00:39:33;2.35;;;2.15;;
73321;SDS011;61549;37.044;22.128;2022-09-27T00:41:59;2.65;;;2.10;;
73321;SDS011;61549;37.044;22.128;2022-09-27T00:49:30;2.10;;;1.90;;
73321;SDS011;61549;37.044;22.128;2022-09-27T00:57:04;2.22;;;2.00;;
73321;SDS011;61549;37.044;22.128;2022-09-27T00:59:34;2.47;;;1.92;;
73321;SDS011;61549;37.044;22.128;2022-09-27T01:02:08;2.22;;;1.95;;
73321;SDS011;61549;37.044;22.128;2022-09-27T01:07:06;2.80;;;2.10;;
73321;SDS011;61549;37.044;22.128;2022-09-27T01:09:32;2.20;;;2.00;;
73321;SDS011;61549;37.044;22.128;2022-09-27T01:12:10;2.20;;;2.00;;
73321;SDS011;61549;37.044;22.128;2022-09-27T01:28:50;2.28;;;2.08;;
73321;SDS011;61549;37.044;22.128;2022-09-27T01:31:23;2.58;;;1.80;;
73321;SDS011;61549;37.044;22.128;2022-09-27T01:37:22;2.03;;;1.80;;
73321;SDS011;61549;37.044;22.128;2022-09-27T01:39:56;2.00;;;1.80;;
73321;SDS011;61549;37.044;22.128;2022-09-27T01:45:13;1.63;;;1.52;;
73321;SDS011;61549;37.044;22.128;2022-09-27T01:47:58;1.95;;;1.75;;
73321;SDS011;61549;37.044;22.128;2022-09-27T01:55:54;2.00;;;1.80;;
73321;SDS011;61549;37.044;22.128;2022-09-27T01:58:26;2.08;;;1.90;;
73321;SDS011;61549;37.044;22.128;2022-09-27T02:00:56;2.08;;;1.80;;
73321;SDS011;61549;37.044;22.128;2022-09-27T02:03:29;2.00;;;1.80;;
73321;SDS011;61549;37.044;22.128;2022-09-27T02:06:15;1.70;;;1.60;;
73321;SDS011;61549;37.044;22.128;2022-09-27T02:11:51;2.08;;;1.70;;
73321;SDS011;61549;37.044;22.128;2022-09-27T02:14:35;1.98;;;1.77;;
73321;SDS011;61549;37.044;22.128;2022-09-27T02:17:20;1.60;;;1.50;;
73321;SDS011;61549;37.044;22.128;2022-09-27T02:22:38;2.17;;;1.70;;
73321;SDS011;61549;37.044;22.128;2022-09-27T02:25:23;1.60;;;1.50;;
73321;SDS011;61549;37.044;22.128;2022-09-27T02:30:43;1.70;;;1.60;;
73321;SDS011;61549;37.044;22.128;2022-09-27T02:33:09;1.60;;;1.50;;
73321;SDS011;61549;37.044;22.128;2022-09-27T02:35:35;1.85;;;1.75;;
73321;SDS011;61549;37.044;22.128;2022-09-27T02:38:02;1.77;;;1.60;;
73321;SDS011;61549;37.044;22.128;2022-09-27T02:40:30;1.90;;;1.70;;
73321;SDS011;61549;37.044;22.128;2022-09-27T02:42:58;1.70;;;1.60;;
73321;SDS011;61549;37.044;22.128;2022-09-27T02:45:27;1.65;;;1.55;;
73321;SDS011;61549;37.044;22.128;2022-09-27T02:48:13;2.55;;;1.75;;
73321;SDS011;61549;37.044;22.128;2022-09-27T02:54:03;1.75;;;1.65;;
73321;SDS011;61549;37.044;22.128;2022-09-27T03:10:51;2.03;;;1.80;;
73321;SDS011;61549;37.044;22.128;2022-09-27T03:13:17;1.75;;;1.60;;
73321;SDS011;61549;37.044;22.128;2022-09-27T03:15:43;1.60;;;1.50;;
73321;SDS011;61549;37.044;22.128;2022-09-27T03:18:10;2.40;;;1.70;;
73321;SDS011;61549;37.044;22.128;2022-09-27T03:20:36;1.70;;;1.60;;
73321;SDS011;61549;37.044;22.128;2022-09-27T03:23:03;1.88;;;1.52;;
73321;SDS011;61549;37.044;22.128;2022-09-27T03:25:29;1.50;;;1.35;;
73321;SDS011;61549;37.044;22.128;2022-09-27T03:27:57;1.50;;;1.40;;
73321;SDS011;61549;37.044;22.128;2022-09-27T03:30:22;1.85;;;1.40;;
73321;SDS011;61549;37.044;22.128;2022-09-27T03:32:48;2.08;;;1.60;;
73321;SDS011;61549;37.044;22.128;2022-09-27T03:35:14;1.50;;;1.40;;
73321;SDS011;61549;37.044;22.128;2022-09-27T03:37:40;1.95;;;1.70;;
73321;SDS011;61549;37.044;22.128;2022-09-27T03:40:07;1.80;;;1.70;;
73321;SDS011;61549;37.044;22.128;2022-09-27T03:42:33;2.28;;;1.67;;
73321;SDS011;61549;37.044;22.128;2022-09-27T03:44:59;1.60;;;1.50;;
73321;SDS011;61549;37.044;22.128;2022-09-27T03:47:25;1.90;;;1.80;;
73321;SDS011;61549;37.044;22.128;2022-09-27T03:49:51;2.72;;;1.58;;
73321;SDS011;61549;37.044;22.128;2022-09-27T03:52:17;2.58;;;1.65;;
73321;SDS011;61549;37.044;22.128;2022-09-27T03:54:44;2.35;;;1.52;;
73321;SDS011;61549;37.044;22.128;2022-09-27T03:57:10;4.03;;;1.60;;
73321;SDS011;61549;37.044;22.128;2022-09-27T03:59:36;3.17;;;1.77;;
73321;SDS011;61549;37.044;22.128;2022-09-27T04:02:03;5.93;;;2.17;;
73321;SDS011;61549;37.044;22.128;2022-09-27T04:04:29;2.75;;;1.73;;
73321;SDS011;61549;37.044;22.128;2022-09-27T04:06:56;1.90;;;1.70;;
73321;SDS011;61549;37.044;22.128;2022-09-27T04:09:23;2.05;;;1.85;;
73321;SDS011;61549;37.044;22.128;2022-09-27T04:11:49;2.67;;;2.00;;
73321;SDS011;61549;37.044;22.128;2022-09-27T04:14:15;2.42;;;1.75;;
73321;SDS011;61549;37.044;22.128;2022-09-27T04:16:41;2.58;;;1.98;;
73321;SDS011;61549;37.044;22.128;2022-09-27T04:19:07;2.45;;;2.00;;
73321;SDS011;61549;37.044;22.128;2022-09-27T04:21:34;2.13;;;1.92;;
73321;SDS011;61549;37.044;22.128;2022-09-27T04:24:00;3.25;;;1.80;;
73321;SDS011;61549;37.044;22.128;2022-09-27T04:26:26;3.55;;;2.10;;
73321;SDS011;61549;37.044;22.128;2022-09-27T04:28:52;2.53;;;1.92;;
73321;SDS011;61549;37.044;22.128;2022-09-27T04:31:18;2.60;;;2.00;;
73321;SDS011;61549;37.044;22.128;2022-09-27T04:33:49;3.90;;;2.10;;
73321;SDS011;61549;37.044;22.128;2022-09-27T04:36:18;3.55;;;2.40;;
73321;SDS011;61549;37.044;22.128;2022-09-27T04:38:53;2.67;;;2.03;;
73321;SDS011;61549;37.044;22.128;2022-09-27T04:41:23;2.55;;;2.20;;
73321;SDS011;61549;37.044;22.128;2022-09-27T04:43:51;2.40;;;2.17;;
73321;SDS011;61549;37.044;22.128;2022-09-27T04:46:18;2.30;;;2.08;;
73321;SDS011;61549;37.044;22.128;2022-09-27T04:48:50;2.78;;;2.10;;
73321;SDS011;61549;37.044;22.128;2022-09-27T04:51:17;3.17;;;2.08;;
73321;SDS011;61549;37.044;22.128;2022-09-27T04:53:44;2.55;;;1.83;;
73321;SDS011;61549;37.044;22.128;2022-09-27T04:56:11;3.78;;;2.40;;
73321;SDS011;61549;37.044;22.128;2022-09-27T04:58:38;2.15;;;1.95;;
73321;SDS011;61549;37.044;22.128;2022-09-27T05:01:04;2.30;;;2.00;;
73321;SDS011;61549;37.044;22.128;2022-09-27T05:03:30;2.38;;;1.85;;
73321;SDS011;61549;37.044;22.128;2022-09-27T05:05:57;2.85;;;2.10;;
73321;SDS011;61549;37.044;22.128;2022-09-27T05:08:23;2.88;;;1.90;;
73321;SDS011;61549;37.044;22.128;2022-09-27T05:10:49;2.10;;;1.90;;
73321;SDS011;61549;37.044;22.128;2022-09-27T05:13:15;2.08;;;1.90;;
73321;SDS011;61549;37.044;22.128;2022-09-27T05:15:42;4.45;;;2.10;;
73321;SDS011;61549;37.044;22.128;2022-09-27T05:18:08;3.80;;;2.33;;
73321;SDS011;61549;37.044;22.128;2022-09-27T05:20:35;2.65;;;2.10;;
73321;SDS011;61549;37.044;22.128;2022-09-27T05:23:02;3.55;;;2.20;;
73321;SDS011;61549;37.044;22.128;2022-09-27T05:25:29;4.60;;;2.17;;
73321;SDS011;61549;37.044;22.128;2022-09-27T05:27:55;1.80;;;1.70;;
73321;SDS011;61549;37.044;22.128;2022-09-27T05:30:22;4.40;;;2.20;;
73321;SDS011;61549;37.044;22.128;2022-09-27T05:32:49;2.97;;;2.40;;
73321;SDS011;61549;37.044;22.128;2022-09-27T05:35:15;3.38;;;2.10;;
73321;SDS011;61549;37.044;22.128;2022-09-27T05:37:53;3.00;;;2.20;;
73321;SDS011;61549;37.044;22.128;2022-09-27T05:40:20;2.30;;;2.10;;
73321;SDS011;61549;37.044;22.128;2022-09-27T05:42:49;2.47;;;2.15;;
73321;SDS011;61549;37.044;22.128;2022-09-27T05:45:16;7.07;;;2.50;;
73321;SDS011;61549;37.044;22.128;2022-09-27T05:47:43;3.70;;;2.35;;
73321;SDS011;61549;37.044;22.128;2022-09-27T05:50:16;6.30;;;2.63;;
73321;SDS011;61549;37.044;22.128;2022-09-27T05:52:42;4.10;;;2.40;;
73321;SDS011;61549;37.044;22.128;2022-09-27T05:55:08;4.15;;;2.63;;
73321;SDS011;61549;37.044;22.128;2022-09-27T05:57:33;3.25;;;2.25;;
73321;SDS011;61549;37.044;22.128;2022-09-27T05:59:59;3.95;;;2.42;;
73321;SDS011;61549;37.044;22.128;2022-09-27T06:02:25;3.90;;;2.72;;
73321;SDS011;61549;37.044;22.128;2022-09-27T06:04:51;7.28;;;2.58;;
73321;SDS011;61549;37.044;22.128;2022-09-27T06:07:17;2.42;;;2.10;;
73321;SDS011;61549;37.044;22.128;2022-09-27T06:09:43;3.97;;;2.30;;
73321;SDS011;61549;37.044;22.128;2022-09-27T06:12:08;2.85;;;2.10;;
73321;SDS011;61549;37.044;22.128;2022-09-27T06:14:35;3.05;;;2.30;;
73321;SDS011;61549;37.044;22.128;2022-09-27T06:17:02;2.90;;;2.20;;
73321;SDS011;61549;37.044;22.128;2022-09-27T06:19:28;2.78;;;2.20;;
73321;SDS011;61549;37.044;22.128;2022-09-27T06:21:54;3.45;;;2.55;;
73321;SDS011;61549;37.044;22.128;2022-09-27T06:24:20;4.15;;;2.60;;
73321;SDS011;61549;37.044;22.128;2022-09-27T06:26:46;6.82;;;2.85;;
73321;SDS011;61549;37.044;22.128;2022-09-27T06:29:12;4.93;;;3.20;;
73321;SDS011;61549;37.044;22.128;2022-09-27T06:31:38;7.03;;;3.20;;
73321;SDS011;61549;37.044;22.128;2022-09-27T06:34:03;4.32;;;3.03;;
73321;SDS011;61549;37.044;22.128;2022-09-27T06:36:30;6.75;;;3.33;;
73321;SDS011;61549;37.044;22.128;2022-09-27T06:38:57;4.22;;;3.20;;
73321;SDS011;61549;37.044;22.128;2022-09-27T06:41:25;5.93;;;2.90;;
73321;SDS011;61549;37.044;22.128;2022-09-27T06:43:51;4.50;;;2.55;;
73321;SDS011;61549;37.044;22.128;2022-09-27T06:46:17;4.57;;;2.63;;
73321;SDS011;61549;37.044;22.128;2022-09-27T06:48:50;5.50;;;2.90;;
73321;SDS011;61549;37.044;22.128;2022-09-27T06:51:17;4.40;;;2.80;;
73321;SDS011;61549;37.044;22.128;2022-09-27T06:53:42;5.28;;;2.80;;
73321;SDS011;61549;37.044;22.128;2022-09-27T06:56:08;4.82;;;3.10;;
73321;SDS011;61549;37.044;22.128;2022-09-27T06:58:34;7.18;;;3.10;;
73321;SDS011;61549;37.044;22.128;2022-09-27T07:04:19;5.82;;;3.00;;
73321;SDS011;61549;37.044;22.128;2022-09-27T07:06:45;4.53;;;3.10;;
73321;SDS011;61549;37.044;22.128;2022-09-27T07:09:11;4.38;;;3.10;;
73321;SDS011;61549;37.044;22.128;2022-09-27T07:11:38;3.95;;;3.00;;
73321;SDS011;61549;37.044;22.128;2022-09-27T07:14:05;4.47;;;2.80;;
73321;SDS011;61549;37.044;22.128;2022-09-27T07:19:53;5.78;;;3.15;;
73321;SDS011;61549;37.044;22.128;2022-09-27T07:22:20;4.50;;;3.20;;
73321;SDS011;61549;37.044;22.128;2022-09-27T07:24:46;3.10;;;2.80;;
73321;SDS011;61549;37.044;22.128;2022-09-27T07:27:12;3.13;;;2.53;;
73321;SDS011;61549;37.044;22.128;2022-09-27T07:29:39;4.82;;;2.90;;
73321;SDS011;61549;37.044;22.128;2022-09-27T07:32:05;3.13;;;2.70;;
73321;SDS011;61549;37.044;22.128;2022-09-27T07:34:34;4.00;;;2.72;;
73321;SDS011;61549;37.044;22.128;2022-09-27T07:37:00;3.05;;;2.70;;
73321;SDS011;61549;37.044;22.128;2022-09-27T07:39:29;3.00;;;2.70;;
73321;SDS011;61549;37.044;22.128;2022-09-27T07:41:56;4.15;;;3.63;;
73321;SDS011;61549;37.044;22.128;2022-09-27T07:44:22;3.47;;;3.17;;
73321;SDS011;61549;37.044;22.128;2022-09-27T07:46:48;3.55;;;3.10;;
73321;SDS011;61549;37.044;22.128;2022-09-27T07:49:14;3.97;;;2.80;;
73321;SDS011;61549;37.044;22.128;2022-09-27T07:51:39;4.07;;;2.70;;
73321;SDS011;61549;37.044;22.128;2022-09-27T07:54:05;5.85;;;3.45;;
73321;SDS011;61549;37.044;22.128;2022-09-27T07:56:31;7.50;;;4.15;;
73321;SDS011;61549;37.044;22.128;2022-09-27T07:58:57;4.50;;;3.30;;
73321;SDS011;61549;37.044;22.128;2022-09-27T08:01:23;3.92;;;3.53;;
73321;SDS011;61549;37.044;22.128;2022-09-27T08:03:49;6.88;;;3.75;;
73321;SDS011;61549;37.044;22.128;2022-09-27T08:06:15;5.90;;;3.72;;
73321;SDS011;61549;37.044;22.128;2022-09-27T08:08:42;10.88;;;5.32;;
73321;SDS011;61549;37.044;22.128;2022-09-27T08:13:46;5.90;;;4.03;;
73321;SDS011;61549;37.044;22.128;2022-09-27T08:16:16;7.15;;;5.65;;
73321;SDS011;61549;37.044;22.128;2022-09-27T08:18:42;7.90;;;4.88;;
73321;SDS011;61549;37.044;22.128;2022-09-27T08:21:08;9.60;;;4.70;;
73321;SDS011;61549;37.044;22.128;2022-09-27T08:23:34;5.97;;;3.90;;
73321;SDS011;61549;37.044;22.128;2022-09-27T08:26:01;6.07;;;3.83;;
73321;SDS011;61549;37.044;22.128;2022-09-27T08:28:27;5.53;;;3.40;;
73321;SDS011;61549;37.044;22.128;2022-09-27T08:30:54;4.07;;;3.40;;
73321;SDS011;61549;37.044;22.128;2022-09-27T08:33:23;6.07;;;3.13;;
73321;SDS011;61549;37.044;22.128;2022-09-27T08:35:50;6.00;;;3.10;;
73321;SDS011;61549;37.044;22.128;2022-09-27T08:38:16;5.15;;;2.95;;
73321;SDS011;61549;37.044;22.128;2022-09-27T08:40:55;6.40;;;3.00;;
73321;SDS011;61549;37.044;22.128;2022-09-27T08:49:30;8.70;;;3.45;;
73321;SDS011;61549;37.044;22.128;2022-09-27T08:52:00;6.13;;;3.22;;
73321;SDS011;61549;37.044;22.128;2022-09-27T08:54:30;7.15;;;3.58;;
73321;SDS011;61549;37.044;22.128;2022-09-27T08:57:08;12.02;;;4.28;;
73321;SDS011;61549;37.044;22.128;2022-09-27T08:59:40;13.15;;;4.63;;
73321;SDS011;61549;37.044;22.128;2022-09-27T09:02:25;8.98;;;4.18;;
73321;SDS011;61549;37.044;22.128;2022-09-27T09:04:55;13.15;;;5.20;;
73321;SDS011;61549;37.044;22.128;2022-09-27T09:22:05;23.60;;;5.43;;
73321;SDS011;61549;37.044;22.128;2022-09-27T09:24:54;14.77;;;5.65;;
73321;SDS011;61549;37.044;22.128;2022-09-27T09:33:05;20.42;;;5.25;;
73321;SDS011;61549;37.044;22.128;2022-09-27T09:38:35;20.02;;;4.18;;
73321;SDS011;61549;37.044;22.128;2022-09-27T09:44:02;13.45;;;4.40;;
73321;SDS011;61549;37.044;22.128;2022-09-27T09:46:46;14.90;;;4.60;;
73321;SDS011;61549;37.044;22.128;2022-09-27T09:49:23;17.95;;;4.18;;
73321;SDS011;61549;37.044;22.128;2022-09-27T09:54:25;21.55;;;5.13;;
73321;SDS011;61549;37.044;22.128;2022-09-27T09:57:00;19.58;;;4.45;;
73321;SDS011;61549;37.044;22.128;2022-09-27T09:59:41;16.98;;;5.10;;
73321;SDS011;61549;37.044;22.128;2022-09-27T10:02:53;17.17;;;4.95;;
73321;SDS011;61549;37.044;22.128;2022-09-27T10:05:04;17.38;;;4.75;;
73321;SDS011;61549;37.044;22.128;2022-09-27T10:07:32;5.55;;;2.28;;
73321;SDS011;61549;37.044;22.128;2022-09-27T10:10:00;8.43;;;2.85;;
73321;SDS011;61549;37.044;22.128;2022-09-27T10:12:29;16.38;;;4.00;;
73321;SDS011;61549;37.044;22.128;2022-09-27T10:14:56;8.13;;;2.50;;
73321;SDS011;61549;37.044;22.128;2022-09-27T10:17:27;10.52;;;3.22;;
73321;SDS011;61549;37.044;22.128;2022-09-27T10:20:01;5.13;;;1.70;;
73321;SDS011;61549;37.044;22.128;2022-09-27T10:22:37;7.15;;;2.30;;
73321;SDS011;61549;37.044;22.128;2022-09-27T10:25:07;5.43;;;1.73;;
73321;SDS011;61549;37.044;22.128;2022-09-27T10:27:41;5.03;;;1.52;;
73321;SDS011;61549;37.044;22.128;2022-09-27T10:30:21;4.82;;;1.23;;
73321;SDS011;61549;37.044;22.128;2022-09-27T10:32:50;4.28;;;0.98;;
73321;SDS011;61549;37.044;22.128;2022-09-27T10:35:31;2.55;;;0.98;;
73321;SDS011;61549;37.044;22.128;2022-09-27T10:40:54;3.95;;;1.10;;
73321;SDS011;61549;37.044;22.128;2022-09-27T10:43:23;4.40;;;1.13;;
73321;SDS011;61549;37.044;22.128;2022-09-27T10:48:35;2.40;;;1.00;;
73321;SDS011;61549;37.044;22.128;2022-09-27T10:51:05;0.85;;;0.50;;
73321;SDS011;61549;37.044;22.128;2022-09-27T10:53:44;1.33;;;0.43;;
73321;SDS011;61549;37.044;22.128;2022-09-27T10:56:22;3.33;;;0.95;;
73321;SDS011;61549;37.044;22.128;2022-09-27T10:58:51;1.77;;;0.50;;
73321;SDS011;61549;37.044;22.128;2022-09-27T11:01:19;2.00;;;0.50;;
73321;SDS011;61549;37.044;22.128;2022-09-27T11:03:47;1.20;;;0.50;;
73321;SDS011;61549;37.044;22.128;2022-09-27T11:06:23;2.08;;;0.80;;
73321;SDS011;61549;37.044;22.128;2022-09-27T11:08:54;4.53;;;1.10;;
73321;SDS011;61549;37.044;22.128;2022-09-27T11:11:23;7.22;;;1.10;;
73321;SDS011;61549;37.044;22.128;2022-09-27T11:14:01;3.42;;;0.80;;
73321;SDS011;61549;37.044;22.128;2022-09-27T11:27:39;2.95;;;0.70;;
73321;SDS011;61549;37.044;22.128;2022-09-27T11:33:19;4.72;;;0.80;;
73321;SDS011;61549;37.044;22.128;2022-09-27T11:41:58;4.88;;;0.80;;
73321;SDS011;61549;37.044;22.128;2022-09-27T11:50:42;3.25;;;0.77;;
73321;SDS011;61549;37.044;22.128;2022-09-27T12:01:47;3.85;;;0.88;;
73321;SDS011;61549;37.044;22.128;2022-09-27T12:07:18;4.38;;;0.75;;
73321;SDS011;61549;37.044;22.128;2022-09-27T12:09:56;4.60;;;1.10;;
73321;SDS011;61549;37.044;22.128;2022-09-27T12:12:28;5.93;;;1.20;;
73321;SDS011;61549;37.044;22.128;2022-09-27T12:14:58;6.82;;;1.23;;
73321;SDS011;61549;37.044;22.128;2022-09-27T12:17:32;2.47;;;1.10;;
73321;SDS011;61549;37.044;22.128;2022-09-27T12:20:09;6.88;;;1.52;;
73321;SDS011;61549;37.044;22.128;2022-09-27T12:25:39;3.33;;;1.38;;
73321;SDS011;61549;37.044;22.128;2022-09-27T12:28:17;4.47;;;1.30;;
73321;SDS011;61549;37.044;22.128;2022-09-27T12:33:56;5.68;;;1.83;;
73321;SDS011;61549;37.044;22.128;2022-09-27T12:36:34;7.57;;;2.10;;
73321;SDS011;61549;37.044;22.128;2022-09-27T12:48:46;8.45;;;2.78;;
73321;SDS011;61549;37.044;22.128;2022-09-27T12:51:44;11.10;;;3.03;;
73321;SDS011;61549;37.044;22.128;2022-09-27T12:57:25;8.60;;;2.90;;
73321;SDS011;61549;37.044;22.128;2022-09-27T13:02:52;7.88;;;2.92;;
73321;SDS011;61549;37.044;22.128;2022-09-27T13:13:39;10.65;;;3.42;;
73321;SDS011;61549;37.044;22.128;2022-09-27T13:16:06;16.08;;;3.75;;
73321;SDS011;61549;37.044;22.128;2022-09-27T13:27:13;10.40;;;3.47;;
73321;SDS011;61549;37.044;22.128;2022-09-27T13:32:32;15.48;;;3.92;;
73321;SDS011;61549;37.044;22.128;2022-09-27T13:35:18;14.07;;;4.22;;
73321;SDS011;61549;37.044;22.128;2022-09-27T13:37:48;13.63;;;4.25;;
73321;SDS011;61549;37.044;22.128;2022-09-27T13:40:24;11.35;;;3.88;;
73321;SDS011;61549;37.044;22.128;2022-09-27T13:48:53;17.52;;;4.70;;
73321;SDS011;61549;37.044;22.128;2022-09-27T13:54:36;18.38;;;4.05;;
73321;SDS011;61549;37.044;22.128;2022-09-27T13:57:07;14.02;;;4.63;;
73321;SDS011;61549;37.044;22.128;2022-09-27T14:00:31;14.45;;;4.20;;
73321;SDS011;61549;37.044;22.128;2022-09-27T14:03:06;10.35;;;3.75;;
73321;SDS011;61549;37.044;22.128;2022-09-27T14:05:51;12.93;;;4.00;;
73321;SDS011;61549;37.044;22.128;2022-09-27T14:11:12;14.85;;;4.57;;
73321;SDS011;61549;37.044;22.128;2022-09-27T14:13:41;17.45;;;4.93;;
73321;SDS011;61549;37.044;22.128;2022-09-27T14:16:13;11.40;;;4.57;;
73321;SDS011;61549;37.044;22.128;2022-09-27T14:18:53;16.80;;;4.72;;
73321;SDS011;61549;37.044;22.128;2022-09-27T14:21:35;24.05;;;5.47;;
73321;SDS011;61549;37.044;22.128;2022-09-27T14:26:44;15.50;;;4.50;;
73321;SDS011;61549;37.044;22.128;2022-09-27T14:29:20;15.10;;;4.70;;
73321;SDS011;61549;37.044;22.128;2022-09-27T14:32:00;20.05;;;5.18;;
73321;SDS011;61549;37.044;22.128;2022-09-27T14:34:41;27.60;;;5.97;;
73321;SDS011;61549;37.044;22.128;2022-09-27T14:37:20;26.00;;;6.07;;
73321;SDS011;61549;37.044;22.128;2022-09-27T14:39:56;26.55;;;5.63;;
73321;SDS011;61549;37.044;22.128;2022-09-27T14:42:25;18.40;;;5.10;;
73321;SDS011;61549;37.044;22.128;2022-09-27T14:44:54;23.73;;;5.60;;
73321;SDS011;61549;37.044;22.128;2022-09-27T14:47:25;21.90;;;5.00;;
73321;SDS011;61549;37.044;22.128;2022-09-27T14:49:53;21.40;;;5.65;;
73321;SDS011;61549;37.044;22.128;2022-09-27T14:52:23;18.90;;;4.75;;
73321;SDS011;61549;37.044;22.128;2022-09-27T14:57:32;23.88;;;5.60;;
73321;SDS011;61549;37.044;22.128;2022-09-27T15:00:00;17.75;;;5.30;;
73321;SDS011;61549;37.044;22.128;2022-09-27T15:02:41;21.88;;;5.43;;
73321;SDS011;61549;37.044;22.128;2022-09-27T15:05:14;21.42;;;5.50;;
73321;SDS011;61549;37.044;22.128;2022-09-27T15:07:43;24.30;;;6.28;;
73321;SDS011;61549;37.044;22.128;2022-09-27T15:10:11;16.40;;;5.75;;
73321;SDS011;61549;37.044;22.128;2022-09-27T15:12:43;14.52;;;4.63;;
73321;SDS011;61549;37.044;22.128;2022-09-27T15:15:15;19.02;;;5.43;;
73321;SDS011;61549;37.044;22.128;2022-09-27T15:17:44;17.85;;;5.40;;
73321;SDS011;61549;37.044;22.128;2022-09-27T15:22:43;14.93;;;4.45;;
73321;SDS011;61549;37.044;22.128;2022-09-27T15:25:18;10.32;;;4.10;;
73321;SDS011;61549;37.044;22.128;2022-09-27T15:27:56;18.17;;;5.15;;
73321;SDS011;61549;37.044;22.128;2022-09-27T15:30:25;16.83;;;4.82;;
73321;SDS011;61549;37.044;22.128;2022-09-27T15:32:54;11.93;;;4.07;;
73321;SDS011;61549;37.044;22.128;2022-09-27T15:35:25;15.95;;;5.20;;
73321;SDS011;61549;37.044;22.128;2022-09-27T15:38:08;16.77;;;5.20;;
73321;SDS011;61549;37.044;22.128;2022-09-27T15:45:58;10.57;;;4.40;;
73321;SDS011;61549;37.044;22.128;2022-09-27T15:48:28;23.30;;;5.78;;
73321;SDS011;61549;37.044;22.128;2022-09-27T15:50:59;20.45;;;5.78;;
73321;SDS011;61549;37.044;22.128;2022-09-27T15:56:02;17.80;;;6.65;;
73321;SDS011;61549;37.044;22.128;2022-09-27T15:58:33;26.67;;;6.68;;
73321;SDS011;61549;37.044;22.128;2022-09-27T16:01:02;19.73;;;6.20;;
73321;SDS011;61549;37.044;22.128;2022-09-27T16:03:31;14.63;;;6.28;;
73321;SDS011;61549;37.044;22.128;2022-09-27T16:06:00;18.20;;;6.55;;
73321;SDS011;61549;37.044;22.128;2022-09-27T16:08:27;20.45;;;6.13;;
73321;SDS011;61549;37.044;22.128;2022-09-27T16:10:54;17.23;;;5.88;;
73321;SDS011;61549;37.044;22.128;2022-09-27T16:13:22;21.52;;;6.38;;
73321;SDS011;61549;37.044;22.128;2022-09-27T16:15:49;20.70;;;6.47;;
73321;SDS011;61549;37.044;22.128;2022-09-27T16:18:15;20.48;;;6.30;;
73321;SDS011;61549;37.044;22.128;2022-09-27T16:20:42;19.50;;;6.63;;
73321;SDS011;61549;37.044;22.128;2022-09-27T16:23:08;20.60;;;6.60;;
73321;SDS011;61549;37.044;22.128;2022-09-27T16:25:34;20.17;;;6.50;;
73321;SDS011;61549;37.044;22.128;2022-09-27T16:28:01;19.50;;;7.13;;
73321;SDS011;61549;37.044;22.128;2022-09-27T16:30:27;18.58;;;6.63;;
73321;SDS011;61549;37.044;22.128;2022-09-27T16:32:57;17.05;;;6.97;;
73321;SDS011;61549;37.044;22.128;2022-09-27T16:35:23;21.88;;;7.45;;
73321;SDS011;61549;37.044;22.128;2022-09-27T16:37:50;17.08;;;7.05;;
73321;SDS011;61549;37.044;22.128;2022-09-27T16:40:16;24.90;;;7.63;;
73321;SDS011;61549;37.044;22.128;2022-09-27T16:42:43;20.15;;;7.25;;
73321;SDS011;61549;37.044;22.128;2022-09-27T16:45:12;21.90;;;7.45;;
73321;SDS011;61549;37.044;22.128;2022-09-27T16:47:41;17.30;;;7.28;;
73321;SDS011;61549;37.044;22.128;2022-09-27T16:50:08;20.35;;;7.72;;
73321;SDS011;61549;37.044;22.128;2022-09-27T16:52:54;19.88;;;8.13;;
73321;SDS011;61549;37.044;22.128;2022-09-27T16:55:21;17.30;;;8.45;;
73321;SDS011;61549;37.044;22.128;2022-09-27T16:57:47;12.95;;;7.10;;
73321;SDS011;61549;37.044;22.128;2022-09-27T17:00:14;13.98;;;7.22;;
73321;SDS011;61549;37.044;22.128;2022-09-27T17:02:40;16.27;;;7.60;;
73321;SDS011;61549;37.044;22.128;2022-09-27T17:05:08;15.65;;;7.40;;
73321;SDS011;61549;37.044;22.128;2022-09-27T17:07:34;19.73;;;7.78;;
73321;SDS011;61549;37.044;22.128;2022-09-27T17:10:00;16.25;;;7.50;;
73321;SDS011;61549;37.044;22.128;2022-09-27T17:12:26;18.25;;;7.80;;
73321;SDS011;61549;37.044;22.128;2022-09-27T17:14:52;22.27;;;7.90;;
73321;SDS011;61549;37.044;22.128;2022-09-27T17:17:17;21.15;;;7.35;;
73321;SDS011;61549;37.044;22.128;2022-09-27T17:19:43;15.93;;;7.50;;
73321;SDS011;61549;37.044;22.128;2022-09-27T17:22:09;14.27;;;6.65;;
73321;SDS011;61549;37.044;22.128;2022-09-27T17:24:35;15.10;;;7.05;;
73321;SDS011;61549;37.044;22.128;2022-09-27T17:27:01;23.63;;;7.45;;
73321;SDS011;61549;37.044;22.128;2022-09-27T17:29:27;18.05;;;7.43;;
73321;SDS011;61549;37.044;22.128;2022-09-27T17:31:54;26.83;;;6.93;;
73321;SDS011;61549;37.044;22.128;2022-09-27T17:34:20;17.65;;;6.85;;
73321;SDS011;61549;37.044;22.128;2022-09-27T17:36:46;18.23;;;7.30;;
73321;SDS011;61549;37.044;22.128;2022-09-27T17:39:14;20.83;;;7.15;;
73321;SDS011;61549;37.044;22.128;2022-09-27T17:41:42;19.02;;;6.95;;
73321;SDS011;61549;37.044;22.128;2022-09-27T17:44:12;15.93;;;6.70;;
73321;SDS011;61549;37.044;22.128;2022-09-27T17:46:39;19.65;;;6.88;;
73321;SDS011;61549;37.044;22.128;2022-09-27T17:49:06;17.92;;;6.10;;
73321;SDS011;61549;37.044;22.128;2022-09-27T17:51:52;13.95;;;6.57;;
73321;SDS011;61549;37.044;22.128;2022-09-27T17:54:22;21.52;;;6.63;;
73321;SDS011;61549;37.044;22.128;2022-09-27T17:56:49;15.73;;;6.40;;
73321;SDS011;61549;37.044;22.128;2022-09-27T17:59:16;15.82;;;6.25;;
73321;SDS011;61549;37.044;22.128;2022-09-27T18:01:43;14.80;;;5.95;;
73321;SDS011;61549;37.044;22.128;2022-09-27T18:04:12;16.95;;;6.60;;
73321;SDS011;61549;37.044;22.128;2022-09-27T18:06:43;18.40;;;6.55;;
73321;SDS011;61549;37.044;22.128;2022-09-27T18:09:10;15.55;;;6.22;;
73321;SDS011;61549;37.044;22.128;2022-09-27T18:11:38;18.15;;;6.20;;
73321;SDS011;61549;37.044;22.128;2022-09-27T18:14:05;19.67;;;6.15;;
73321;SDS011;61549;37.044;22.128;2022-09-27T18:16:33;13.30;;;5.75;;
73321;SDS011;61549;37.044;22.128;2022-09-27T18:19:04;12.73;;;5.82;;
73321;SDS011;61549;37.044;22.128;2022-09-27T18:21:32;14.73;;;6.30;;
73321;SDS011;61549;37.044;22.128;2022-09-27T18:23:58;22.23;;;5.75;;
73321;SDS011;61549;37.044;22.128;2022-09-27T18:26:27;15.32;;;5.53;;